sensor_id;sensor_type;location;lat;lon;timestamp;P1;durP1;ratioP1;P2;durP2;ratioP2
12145;SDS011;6136;47.032;15.398;2023-03-31T00:01:19;7.53;;;5.17;;
12145;SDS011;6136;47.032;15.398;2023-03-31T00:03:49;8.80;;;5.33;;
12145;SDS011;6136;47.032;15.398;2023-03-31T00:06:18;7.13;;;5.27;;
12145;SDS011;6136;47.032;15.398;2023-03-31T00:08:46;8.30;;;5.97;;
12145;SDS011;6136;47.032;15.398;2023-03-31T00:11:18;7.50;;;5.57;;
12145;SDS011;6136;47.032;15.398;2023-03-31T00:13:49;10.60;;;5.27;;
12145;SDS011;6136;47.032;15.398;2023-03-31T00:16:17;9.60;;;5.77;;
12145;SDS011;6136;47.032;15.398;2023-03-31T00:18:46;9.67;;;5.63;;
12145;SDS011;6136;47.032;15.398;2023-03-31T00:21:17;7.43;;;5.03;;
12145;SDS011;6136;47.032;15.398;2023-03-31T00:23:56;7.53;;;5.47;;
12145;SDS011;6136;47.032;15.398;2023-03-31T00:26:27;6.70;;;5.07;;
12145;SDS011;6136;47.032;15.398;2023-03-31T00:28:56;5.93;;;4.53;;
12145;SDS011;6136;47.032;15.398;2023-03-31T00:31:27;8.63;;;5.13;;
12145;SDS011;6136;47.032;15.398;2023-03-31T00:33:56;6.60;;;5.23;;
12145;SDS011;6136;47.032;15.398;2023-03-31T00:36:25;7.13;;;5.40;;
12145;SDS011;6136;47.032;15.398;2023-03-31T00:38:54;7.93;;;6.07;;
12145;SDS011;6136;47.032;15.398;2023-03-31T00:41:27;10.07;;;5.50;;
12145;SDS011;6136;47.032;15.398;2023-03-31T00:44:00;7.90;;;5.30;;
12145;SDS011;6136;47.032;15.398;2023-03-31T00:46:37;6.70;;;5.17;;
12145;SDS011;6136;47.032;15.398;2023-03-31T00:49:16;6.90;;;4.90;;
12145;SDS011;6136;47.032;15.398;2023-03-31T00:51:49;13.77;;;5.53;;
12145;SDS011;6136;47.032;15.398;2023-03-31T00:54:20;8.03;;;5.07;;
12145;SDS011;6136;47.032;15.398;2023-03-31T00:56:53;5.40;;;4.80;;
12145;SDS011;6136;47.032;15.398;2023-03-31T00:59:24;9.77;;;5.73;;
12145;SDS011;6136;47.032;15.398;2023-03-31T01:01:56;6.73;;;5.07;;
12145;SDS011;6136;47.032;15.398;2023-03-31T01:04:29;7.53;;;5.70;;
12145;SDS011;6136;47.032;15.398;2023-03-31T01:07:02;7.23;;;5.00;;
12145;SDS011;6136;47.032;15.398;2023-03-31T01:09:38;5.77;;;4.83;;
12145;SDS011;6136;47.032;15.398;2023-03-31T01:12:09;7.60;;;4.50;;
12145;SDS011;6136;47.032;15.398;2023-03-31T01:14:37;7.93;;;4.87;;
12145;SDS011;6136;47.032;15.398;2023-03-31T01:17:06;9.37;;;5.17;;
12145;SDS011;6136;47.032;15.398;2023-03-31T01:19:42;5.37;;;4.63;;
12145;SDS011;6136;47.032;15.398;2023-03-31T01:28:23;5.93;;;4.80;;
12145;SDS011;6136;47.032;15.398;2023-03-31T01:34:16;5.07;;;4.10;;
12145;SDS011;6136;47.032;15.398;2023-03-31T01:40:15;7.90;;;4.20;;
12145;SDS011;6136;47.032;15.398;2023-03-31T01:42:52;7.10;;;4.50;;
12145;SDS011;6136;47.032;15.398;2023-03-31T01:45:26;5.70;;;4.47;;
12145;SDS011;6136;47.032;15.398;2023-03-31T01:48:06;7.10;;;4.57;;
12145;SDS011;6136;47.032;15.398;2023-03-31T01:50:42;4.77;;;4.07;;
12145;SDS011;6136;47.032;15.398;2023-03-31T01:53:15;4.67;;;4.20;;
12145;SDS011;6136;47.032;15.398;2023-03-31T01:55:51;5.23;;;4.70;;
12145;SDS011;6136;47.032;15.398;2023-03-31T01:58:31;6.93;;;5.70;;
12145;SDS011;6136;47.032;15.398;2023-03-31T02:01:05;4.80;;;4.27;;
12145;SDS011;6136;47.032;15.398;2023-03-31T02:03:43;5.10;;;4.57;;
12145;SDS011;6136;47.032;15.398;2023-03-31T02:06:16;6.23;;;5.03;;
12145;SDS011;6136;47.032;15.398;2023-03-31T02:08:50;6.17;;;5.07;;
12145;SDS011;6136;47.032;15.398;2023-03-31T02:11:25;7.17;;;4.97;;
12145;SDS011;6136;47.032;15.398;2023-03-31T02:13:59;8.03;;;5.37;;
12145;SDS011;6136;47.032;15.398;2023-03-31T02:16:31;7.30;;;4.83;;
12145;SDS011;6136;47.032;15.398;2023-03-31T02:19:03;6.10;;;4.57;;
12145;SDS011;6136;47.032;15.398;2023-03-31T02:21:35;6.70;;;5.10;;
12145;SDS011;6136;47.032;15.398;2023-03-31T02:24:06;6.57;;;4.67;;
12145;SDS011;6136;47.032;15.398;2023-03-31T02:26:40;8.57;;;5.27;;
12145;SDS011;6136;47.032;15.398;2023-03-31T02:29:13;5.37;;;4.60;;
12145;SDS011;6136;47.032;15.398;2023-03-31T02:31:43;6.73;;;4.83;;
12145;SDS011;6136;47.032;15.398;2023-03-31T02:34:16;6.20;;;4.43;;
12145;SDS011;6136;47.032;15.398;2023-03-31T02:36:44;6.00;;;4.53;;
12145;SDS011;6136;47.032;15.398;2023-03-31T02:39:14;6.57;;;5.07;;
12145;SDS011;6136;47.032;15.398;2023-03-31T02:41:48;5.50;;;4.20;;
12145;SDS011;6136;47.032;15.398;2023-03-31T02:44:18;6.03;;;4.70;;
12145;SDS011;6136;47.032;15.398;2023-03-31T02:46:47;4.93;;;4.20;;
12145;SDS011;6136;47.032;15.398;2023-03-31T02:49:16;5.23;;;4.53;;
12145;SDS011;6136;47.032;15.398;2023-03-31T02:51:49;5.97;;;4.87;;
12145;SDS011;6136;47.032;15.398;2023-03-31T02:54:51;5.00;;;4.50;;
12145;SDS011;6136;47.032;15.398;2023-03-31T02:57:41;5.70;;;4.20;;
12145;SDS011;6136;47.032;15.398;2023-03-31T03:00:33;5.53;;;4.53;;
12145;SDS011;6136;47.032;15.398;2023-03-31T03:03:17;5.20;;;4.70;;
12145;SDS011;6136;47.032;15.398;2023-03-31T03:05:58;5.63;;;4.37;;
12145;SDS011;6136;47.032;15.398;2023-03-31T03:08:33;6.37;;;5.03;;
12145;SDS011;6136;47.032;15.398;2023-03-31T03:11:24;4.57;;;4.17;;
12145;SDS011;6136;47.032;15.398;2023-03-31T03:14:02;6.93;;;4.77;;
12145;SDS011;6136;47.032;15.398;2023-03-31T03:16:36;7.33;;;5.00;;
12145;SDS011;6136;47.032;15.398;2023-03-31T03:19:08;7.17;;;5.00;;
12145;SDS011;6136;47.032;15.398;2023-03-31T03:21:37;6.80;;;4.90;;
12145;SDS011;6136;47.032;15.398;2023-03-31T03:24:05;5.00;;;4.50;;
12145;SDS011;6136;47.032;15.398;2023-03-31T03:26:34;6.07;;;4.70;;
12145;SDS011;6136;47.032;15.398;2023-03-31T03:29:04;5.07;;;4.57;;
12145;SDS011;6136;47.032;15.398;2023-03-31T03:31:32;6.33;;;4.73;;
12145;SDS011;6136;47.032;15.398;2023-03-31T03:34:00;10.40;;;5.10;;
12145;SDS011;6136;47.032;15.398;2023-03-31T03:36:28;6.73;;;4.40;;
12145;SDS011;6136;47.032;15.398;2023-03-31T03:38:57;7.57;;;5.40;;
12145;SDS011;6136;47.032;15.398;2023-03-31T03:41:25;5.13;;;4.30;;
12145;SDS011;6136;47.032;15.398;2023-03-31T03:43:53;5.37;;;4.73;;
12145;SDS011;6136;47.032;15.398;2023-03-31T03:46:23;5.00;;;4.47;;
12145;SDS011;6136;47.032;15.398;2023-03-31T03:48:51;6.70;;;4.63;;
12145;SDS011;6136;47.032;15.398;2023-03-31T03:51:19;10.30;;;4.70;;
12145;SDS011;6136;47.032;15.398;2023-03-31T03:53:47;4.07;;;3.47;;
12145;SDS011;6136;47.032;15.398;2023-03-31T03:56:16;5.73;;;4.37;;
12145;SDS011;6136;47.032;15.398;2023-03-31T03:58:44;6.77;;;4.40;;
12145;SDS011;6136;47.032;15.398;2023-03-31T04:01:12;5.40;;;4.40;;
12145;SDS011;6136;47.032;15.398;2023-03-31T04:03:43;6.33;;;3.87;;
12145;SDS011;6136;47.032;15.398;2023-03-31T04:06:11;6.70;;;4.20;;
12145;SDS011;6136;47.032;15.398;2023-03-31T04:08:39;7.30;;;4.60;;
12145;SDS011;6136;47.032;15.398;2023-03-31T04:11:10;6.23;;;4.20;;
12145;SDS011;6136;47.032;15.398;2023-03-31T04:13:44;5.50;;;4.87;;
12145;SDS011;6136;47.032;15.398;2023-03-31T04:16:13;9.60;;;4.93;;
12145;SDS011;6136;47.032;15.398;2023-03-31T04:18:43;8.57;;;6.83;;
12145;SDS011;6136;47.032;15.398;2023-03-31T04:21:14;7.93;;;4.87;;
12145;SDS011;6136;47.032;15.398;2023-03-31T04:23:49;6.80;;;4.97;;
12145;SDS011;6136;47.032;15.398;2023-03-31T04:26:25;5.50;;;4.43;;
12145;SDS011;6136;47.032;15.398;2023-03-31T04:29:04;7.03;;;4.73;;
12145;SDS011;6136;47.032;15.398;2023-03-31T04:31:33;9.90;;;4.60;;
12145;SDS011;6136;47.032;15.398;2023-03-31T04:34:05;6.63;;;4.97;;
12145;SDS011;6136;47.032;15.398;2023-03-31T04:36:39;8.13;;;4.43;;
12145;SDS011;6136;47.032;15.398;2023-03-31T04:39:14;8.37;;;4.67;;
12145;SDS011;6136;47.032;15.398;2023-03-31T04:41:43;5.73;;;3.97;;
12145;SDS011;6136;47.032;15.398;2023-03-31T04:44:12;6.03;;;4.23;;
12145;SDS011;6136;47.032;15.398;2023-03-31T04:46:41;6.23;;;4.63;;
12145;SDS011;6136;47.032;15.398;2023-03-31T04:49:10;4.77;;;4.23;;
12145;SDS011;6136;47.032;15.398;2023-03-31T04:51:39;5.77;;;4.67;;
12145;SDS011;6136;47.032;15.398;2023-03-31T04:54:07;5.63;;;4.80;;
12145;SDS011;6136;47.032;15.398;2023-03-31T04:56:36;6.97;;;5.10;;
12145;SDS011;6136;47.032;15.398;2023-03-31T04:59:04;6.37;;;4.83;;
12145;SDS011;6136;47.032;15.398;2023-03-31T05:01:34;5.77;;;4.33;;
12145;SDS011;6136;47.032;15.398;2023-03-31T05:04:03;6.90;;;4.67;;
12145;SDS011;6136;47.032;15.398;2023-03-31T05:06:33;6.87;;;4.80;;
12145;SDS011;6136;47.032;15.398;2023-03-31T05:09:01;8.40;;;5.07;;
12145;SDS011;6136;47.032;15.398;2023-03-31T05:11:30;6.53;;;5.00;;
12145;SDS011;6136;47.032;15.398;2023-03-31T05:13:58;8.23;;;5.83;;
12145;SDS011;6136;47.032;15.398;2023-03-31T05:16:26;7.80;;;5.47;;
12145;SDS011;6136;47.032;15.398;2023-03-31T05:18:55;6.93;;;5.83;;
12145;SDS011;6136;47.032;15.398;2023-03-31T05:21:23;8.87;;;5.43;;
12145;SDS011;6136;47.032;15.398;2023-03-31T05:23:53;7.10;;;5.17;;
12145;SDS011;6136;47.032;15.398;2023-03-31T05:26:22;6.90;;;5.87;;
12145;SDS011;6136;47.032;15.398;2023-03-31T05:28:50;8.07;;;5.00;;
12145;SDS011;6136;47.032;15.398;2023-03-31T05:31:19;7.10;;;5.50;;
12145;SDS011;6136;47.032;15.398;2023-03-31T05:33:48;6.43;;;4.97;;
12145;SDS011;6136;47.032;15.398;2023-03-31T05:36:16;7.13;;;5.03;;
12145;SDS011;6136;47.032;15.398;2023-03-31T05:38:44;6.83;;;4.83;;
12145;SDS011;6136;47.032;15.398;2023-03-31T05:41:14;11.13;;;5.47;;
12145;SDS011;6136;47.032;15.398;2023-03-31T05:43:43;8.73;;;5.10;;
12145;SDS011;6136;47.032;15.398;2023-03-31T05:46:11;11.97;;;5.47;;
12145;SDS011;6136;47.032;15.398;2023-03-31T05:48:40;12.43;;;7.07;;
12145;SDS011;6136;47.032;15.398;2023-03-31T05:51:11;11.33;;;7.90;;
12145;SDS011;6136;47.032;15.398;2023-03-31T05:53:39;11.60;;;8.10;;
12145;SDS011;6136;47.032;15.398;2023-03-31T05:56:08;16.17;;;9.53;;
12145;SDS011;6136;47.032;15.398;2023-03-31T05:58:39;14.73;;;8.20;;
12145;SDS011;6136;47.032;15.398;2023-03-31T06:01:08;12.67;;;8.27;;
12145;SDS011;6136;47.032;15.398;2023-03-31T06:03:38;11.77;;;7.80;;
12145;SDS011;6136;47.032;15.398;2023-03-31T06:06:08;15.13;;;8.50;;
12145;SDS011;6136;47.032;15.398;2023-03-31T06:08:38;9.57;;;7.00;;
12145;SDS011;6136;47.032;15.398;2023-03-31T06:11:09;11.43;;;7.33;;
12145;SDS011;6136;47.032;15.398;2023-03-31T06:13:39;12.33;;;7.87;;
12145;SDS011;6136;47.032;15.398;2023-03-31T06:16:09;12.43;;;8.13;;
12145;SDS011;6136;47.032;15.398;2023-03-31T06:18:39;13.17;;;7.37;;
12145;SDS011;6136;47.032;15.398;2023-03-31T06:21:08;16.27;;;7.90;;
12145;SDS011;6136;47.032;15.398;2023-03-31T06:23:39;10.13;;;7.23;;
12145;SDS011;6136;47.032;15.398;2023-03-31T06:26:10;9.47;;;6.30;;
12145;SDS011;6136;47.032;15.398;2023-03-31T06:28:42;8.53;;;6.73;;
12145;SDS011;6136;47.032;15.398;2023-03-31T06:31:11;9.30;;;6.77;;
12145;SDS011;6136;47.032;15.398;2023-03-31T06:33:40;11.77;;;6.97;;
12145;SDS011;6136;47.032;15.398;2023-03-31T06:36:10;12.90;;;7.63;;
12145;SDS011;6136;47.032;15.398;2023-03-31T06:38:40;10.10;;;7.60;;
12145;SDS011;6136;47.032;15.398;2023-03-31T06:41:10;9.97;;;7.10;;
12145;SDS011;6136;47.032;15.398;2023-03-31T06:43:40;10.00;;;7.03;;
12145;SDS011;6136;47.032;15.398;2023-03-31T06:46:10;14.03;;;7.40;;
12145;SDS011;6136;47.032;15.398;2023-03-31T06:48:39;18.07;;;7.97;;
12145;SDS011;6136;47.032;15.398;2023-03-31T06:51:08;8.53;;;6.90;;
12145;SDS011;6136;47.032;15.398;2023-03-31T06:53:36;9.83;;;6.77;;
12145;SDS011;6136;47.032;15.398;2023-03-31T06:56:05;14.43;;;7.57;;
12145;SDS011;6136;47.032;15.398;2023-03-31T06:58:34;9.67;;;6.70;;
12145;SDS011;6136;47.032;15.398;2023-03-31T07:01:04;11.97;;;6.97;;
12145;SDS011;6136;47.032;15.398;2023-03-31T07:03:33;10.17;;;6.40;;
12145;SDS011;6136;47.032;15.398;2023-03-31T07:06:02;7.97;;;6.37;;
12145;SDS011;6136;47.032;15.398;2023-03-31T07:08:31;12.83;;;6.93;;
12145;SDS011;6136;47.032;15.398;2023-03-31T07:10:59;11.20;;;7.17;;
12145;SDS011;6136;47.032;15.398;2023-03-31T07:13:29;12.23;;;6.67;;
12145;SDS011;6136;47.032;15.398;2023-03-31T07:15:57;10.47;;;7.10;;
12145;SDS011;6136;47.032;15.398;2023-03-31T07:18:27;10.50;;;5.60;;
12145;SDS011;6136;47.032;15.398;2023-03-31T07:21:01;14.23;;;6.67;;
12145;SDS011;6136;47.032;15.398;2023-03-31T07:23:35;11.73;;;6.37;;
12145;SDS011;6136;47.032;15.398;2023-03-31T07:26:03;11.20;;;6.17;;
12145;SDS011;6136;47.032;15.398;2023-03-31T07:28:32;8.20;;;6.30;;
12145;SDS011;6136;47.032;15.398;2023-03-31T07:31:00;11.70;;;5.87;;
12145;SDS011;6136;47.032;15.398;2023-03-31T07:33:30;12.63;;;6.17;;
12145;SDS011;6136;47.032;15.398;2023-03-31T07:36:02;10.03;;;5.83;;
12145;SDS011;6136;47.032;15.398;2023-03-31T07:38:39;13.27;;;6.63;;
12145;SDS011;6136;47.032;15.398;2023-03-31T07:41:09;7.60;;;5.63;;
12145;SDS011;6136;47.032;15.398;2023-03-31T07:43:38;6.80;;;5.70;;
12145;SDS011;6136;47.032;15.398;2023-03-31T07:46:12;5.28;;;4.78;;
12145;SDS011;6136;47.032;15.398;2023-03-31T07:48:43;8.45;;;5.43;;
12145;SDS011;6136;47.032;15.398;2023-03-31T07:51:13;6.40;;;4.20;;
12145;SDS011;6136;47.032;15.398;2023-03-31T07:53:42;8.23;;;4.43;;
12145;SDS011;6136;47.032;15.398;2023-03-31T07:56:11;5.93;;;3.70;;
12145;SDS011;6136;47.032;15.398;2023-03-31T07:58:40;4.68;;;3.78;;
12145;SDS011;6136;47.032;15.398;2023-03-31T08:01:08;4.45;;;4.05;;
12145;SDS011;6136;47.032;15.398;2023-03-31T08:03:37;6.65;;;4.10;;
12145;SDS011;6136;47.032;15.398;2023-03-31T08:06:07;5.20;;;4.43;;
12145;SDS011;6136;47.032;15.398;2023-03-31T08:08:36;6.53;;;3.88;;
12145;SDS011;6136;47.032;15.398;2023-03-31T08:11:08;7.53;;;4.38;;
12145;SDS011;6136;47.032;15.398;2023-03-31T08:13:37;6.55;;;3.85;;
12145;SDS011;6136;47.032;15.398;2023-03-31T08:16:05;5.10;;;4.18;;
12145;SDS011;6136;47.032;15.398;2023-03-31T08:18:34;5.97;;;3.88;;
12145;SDS011;6136;47.032;15.398;2023-03-31T08:21:03;6.00;;;4.80;;
12145;SDS011;6136;47.032;15.398;2023-03-31T08:23:33;4.15;;;3.63;;
12145;SDS011;6136;47.032;15.398;2023-03-31T08:26:06;4.40;;;3.10;;
12145;SDS011;6136;47.032;15.398;2023-03-31T08:28:36;4.30;;;3.58;;
12145;SDS011;6136;47.032;15.398;2023-03-31T08:31:05;3.88;;;3.47;;
12145;SDS011;6136;47.032;15.398;2023-03-31T08:33:36;4.22;;;3.83;;
12145;SDS011;6136;47.032;15.398;2023-03-31T08:36:04;3.42;;;3.13;;
12145;SDS011;6136;47.032;15.398;2023-03-31T08:38:39;3.90;;;2.92;;
12145;SDS011;6136;47.032;15.398;2023-03-31T08:41:13;5.88;;;2.88;;
12145;SDS011;6136;47.032;15.398;2023-03-31T08:43:54;3.72;;;3.28;;
12145;SDS011;6136;47.032;15.398;2023-03-31T08:46:26;4.47;;;2.85;;
12145;SDS011;6136;47.032;15.398;2023-03-31T08:48:57;4.22;;;2.78;;
12145;SDS011;6136;47.032;15.398;2023-03-31T08:51:28;4.28;;;2.85;;
12145;SDS011;6136;47.032;15.398;2023-03-31T08:54:01;2.90;;;2.70;;
12145;SDS011;6136;47.032;15.398;2023-03-31T08:56:33;3.65;;;2.60;;
12145;SDS011;6136;47.032;15.398;2023-03-31T08:59:05;5.93;;;2.80;;
12145;SDS011;6136;47.032;15.398;2023-03-31T09:01:43;3.20;;;2.90;;
12145;SDS011;6136;47.032;15.398;2023-03-31T09:04:25;3.40;;;2.38;;
12145;SDS011;6136;47.032;15.398;2023-03-31T09:07:11;3.88;;;2.30;;
12145;SDS011;6136;47.032;15.398;2023-03-31T09:09:48;2.30;;;2.10;;
12145;SDS011;6136;47.032;15.398;2023-03-31T09:12:26;2.22;;;2.03;;
12145;SDS011;6136;47.032;15.398;2023-03-31T09:15:03;2.13;;;1.80;;
12145;SDS011;6136;47.032;15.398;2023-03-31T09:17:41;3.67;;;2.05;;
12145;SDS011;6136;47.032;15.398;2023-03-31T09:20:14;5.95;;;2.45;;
12145;SDS011;6136;47.032;15.398;2023-03-31T09:22:47;2.75;;;2.45;;
12145;SDS011;6136;47.032;15.398;2023-03-31T09:25:22;2.10;;;1.90;;
12145;SDS011;6136;47.032;15.398;2023-03-31T09:27:54;3.53;;;2.30;;
12145;SDS011;6136;47.032;15.398;2023-03-31T09:30:26;2.88;;;1.85;;
12145;SDS011;6136;47.032;15.398;2023-03-31T09:33:00;2.28;;;2.00;;
12145;SDS011;6136;47.032;15.398;2023-03-31T09:35:38;2.05;;;1.90;;
12145;SDS011;6136;47.032;15.398;2023-03-31T09:38:08;2.10;;;1.90;;
12145;SDS011;6136;47.032;15.398;2023-03-31T09:40:39;3.78;;;1.75;;
12145;SDS011;6136;47.032;15.398;2023-03-31T09:43:14;2.33;;;1.70;;
12145;SDS011;6136;47.032;15.398;2023-03-31T09:45:48;2.42;;;1.88;;
12145;SDS011;6136;47.032;15.398;2023-03-31T09:48:34;4.50;;;2.10;;
12145;SDS011;6136;47.032;15.398;2023-03-31T09:51:05;4.72;;;2.15;;
12145;SDS011;6136;47.032;15.398;2023-03-31T09:53:39;4.53;;;1.83;;
12145;SDS011;6136;47.032;15.398;2023-03-31T09:56:12;1.70;;;1.60;;
12145;SDS011;6136;47.032;15.398;2023-03-31T09:58:40;2.15;;;1.50;;
12145;SDS011;6136;47.032;15.398;2023-03-31T10:01:12;2.90;;;1.83;;
12145;SDS011;6136;47.032;15.398;2023-03-31T10:03:43;2.92;;;1.67;;
12145;SDS011;6136;47.032;15.398;2023-03-31T10:06:17;2.20;;;1.58;;
12145;SDS011;6136;47.032;15.398;2023-03-31T10:08:46;2.00;;;1.90;;
12145;SDS011;6136;47.032;15.398;2023-03-31T10:11:20;2.53;;;1.90;;
12145;SDS011;6136;47.032;15.398;2023-03-31T10:13:52;2.38;;;1.90;;
12145;SDS011;6136;47.032;15.398;2023-03-31T10:16:27;2.22;;;1.80;;
12145;SDS011;6136;47.032;15.398;2023-03-31T10:19:10;2.30;;;1.80;;
12145;SDS011;6136;47.032;15.398;2023-03-31T10:21:40;2.50;;;1.73;;
12145;SDS011;6136;47.032;15.398;2023-03-31T10:24:15;4.22;;;1.83;;
12145;SDS011;6136;47.032;15.398;2023-03-31T10:26:47;1.48;;;1.38;;
12145;SDS011;6136;47.032;15.398;2023-03-31T10:29:17;2.38;;;1.70;;
12145;SDS011;6136;47.032;15.398;2023-03-31T10:31:51;2.42;;;1.80;;
12145;SDS011;6136;47.032;15.398;2023-03-31T10:34:20;1.65;;;1.55;;
12145;SDS011;6136;47.032;15.398;2023-03-31T10:36:49;3.35;;;1.55;;
12145;SDS011;6136;47.032;15.398;2023-03-31T10:39:19;1.52;;;1.42;;
12145;SDS011;6136;47.032;15.398;2023-03-31T10:41:52;1.90;;;1.80;;
12145;SDS011;6136;47.032;15.398;2023-03-31T10:47:15;2.17;;;1.77;;
12145;SDS011;6136;47.032;15.398;2023-03-31T10:49:47;1.60;;;1.40;;
12145;SDS011;6136;47.032;15.398;2023-03-31T10:52:18;1.77;;;1.65;;
12145;SDS011;6136;47.032;15.398;2023-03-31T10:54:50;1.73;;;1.63;;
12145;SDS011;6136;47.032;15.398;2023-03-31T10:57:25;3.70;;;2.00;;
12145;SDS011;6136;47.032;15.398;2023-03-31T11:00:03;4.75;;;1.98;;
12145;SDS011;6136;47.032;15.398;2023-03-31T11:05:43;1.60;;;1.50;;
12145;SDS011;6136;47.032;15.398;2023-03-31T11:08:20;1.98;;;1.60;;
12145;SDS011;6136;47.032;15.398;2023-03-31T11:11:14;2.65;;;1.55;;
12145;SDS011;6136;47.032;15.398;2023-03-31T11:13:56;2.45;;;1.40;;
12145;SDS011;6136;47.032;15.398;2023-03-31T11:16:32;3.45;;;1.50;;
12145;SDS011;6136;47.032;15.398;2023-03-31T11:19:10;2.95;;;1.40;;
12145;SDS011;6136;47.032;15.398;2023-03-31T11:21:53;1.65;;;1.40;;
12145;SDS011;6136;47.032;15.398;2023-03-31T11:24:31;1.50;;;1.40;;
12145;SDS011;6136;47.032;15.398;2023-03-31T11:27:20;1.55;;;1.45;;
12145;SDS011;6136;47.032;15.398;2023-03-31T11:29:59;1.60;;;1.48;;
12145;SDS011;6136;47.032;15.398;2023-03-31T11:32:35;1.40;;;1.30;;
12145;SDS011;6136;47.032;15.398;2023-03-31T11:35:18;1.38;;;1.27;;
12145;SDS011;6136;47.032;15.398;2023-03-31T11:38:03;1.13;;;1.13;;
12145;SDS011;6136;47.032;15.398;2023-03-31T11:40:53;2.55;;;1.17;;
12145;SDS011;6136;47.032;15.398;2023-03-31T11:43:29;2.25;;;1.70;;
12145;SDS011;6136;47.032;15.398;2023-03-31T11:46:04;1.38;;;1.20;;
12145;SDS011;6136;47.032;15.398;2023-03-31T11:48:39;1.70;;;1.55;;
12145;SDS011;6136;47.032;15.398;2023-03-31T11:51:13;1.70;;;1.60;;
12145;SDS011;6136;47.032;15.398;2023-03-31T11:53:44;1.50;;;1.40;;
12145;SDS011;6136;47.032;15.398;2023-03-31T11:56:15;1.42;;;1.33;;
12145;SDS011;6136;47.032;15.398;2023-03-31T11:58:46;2.85;;;1.65;;
12145;SDS011;6136;47.032;15.398;2023-03-31T12:01:24;1.75;;;1.55;;
12145;SDS011;6136;47.032;15.398;2023-03-31T12:03:59;2.25;;;1.45;;
12145;SDS011;6136;47.032;15.398;2023-03-31T12:06:32;1.50;;;1.40;;
12145;SDS011;6136;47.032;15.398;2023-03-31T12:09:06;2.15;;;1.92;;
12145;SDS011;6136;47.032;15.398;2023-03-31T12:11:44;2.00;;;1.80;;
12145;SDS011;6136;47.032;15.398;2023-03-31T12:14:21;2.05;;;1.60;;
12145;SDS011;6136;47.032;15.398;2023-03-31T12:16:59;2.25;;;1.60;;
12145;SDS011;6136;47.032;15.398;2023-03-31T12:19:33;1.98;;;1.60;;
12145;SDS011;6136;47.032;15.398;2023-03-31T12:22:09;1.40;;;1.30;;
12145;SDS011;6136;47.032;15.398;2023-03-31T12:24:40;1.58;;;1.48;;
12145;SDS011;6136;47.032;15.398;2023-03-31T12:27:10;3.33;;;1.48;;
12145;SDS011;6136;47.032;15.398;2023-03-31T12:29:44;3.28;;;1.40;;
12145;SDS011;6136;47.032;15.398;2023-03-31T12:32:17;1.50;;;1.40;;
12145;SDS011;6136;47.032;15.398;2023-03-31T12:34:50;8.15;;;1.90;;
12145;SDS011;6136;47.032;15.398;2023-03-31T12:40:41;2.00;;;1.70;;
12145;SDS011;6136;47.032;15.398;2023-03-31T12:43:23;5.82;;;1.60;;
12145;SDS011;6136;47.032;15.398;2023-03-31T12:46:15;1.95;;;1.63;;
12145;SDS011;6136;47.032;15.398;2023-03-31T12:48:56;1.55;;;1.45;;
12145;SDS011;6136;47.032;15.398;2023-03-31T12:51:37;1.50;;;1.40;;
12145;SDS011;6136;47.032;15.398;2023-03-31T12:54:18;1.65;;;1.50;;
12145;SDS011;6136;47.032;15.398;2023-03-31T12:57:18;1.60;;;1.50;;
12145;SDS011;6136;47.032;15.398;2023-03-31T13:02:47;1.75;;;1.42;;
12145;SDS011;6136;47.032;15.398;2023-03-31T13:11:21;2.00;;;1.48;;
12145;SDS011;6136;47.032;15.398;2023-03-31T13:14:02;1.40;;;1.30;;
12145;SDS011;6136;47.032;15.398;2023-03-31T13:16:33;2.35;;;1.33;;
12145;SDS011;6136;47.032;15.398;2023-03-31T13:19:03;1.58;;;1.42;;
12145;SDS011;6136;47.032;15.398;2023-03-31T13:21:37;1.50;;;1.40;;
12145;SDS011;6136;47.032;15.398;2023-03-31T13:24:20;1.60;;;1.50;;
12145;SDS011;6136;47.032;15.398;2023-03-31T13:26:50;1.85;;;1.27;;
12145;SDS011;6136;47.032;15.398;2023-03-31T13:29:23;1.52;;;1.40;;
12145;SDS011;6136;47.032;15.398;2023-03-31T13:32:17;1.35;;;1.27;;
12145;SDS011;6136;47.032;15.398;2023-03-31T13:38:00;2.60;;;1.30;;
12145;SDS011;6136;47.032;15.398;2023-03-31T13:40:45;4.68;;;1.45;;
12145;SDS011;6136;47.032;15.398;2023-03-31T13:43:32;1.50;;;1.40;;
12145;SDS011;6136;47.032;15.398;2023-03-31T13:46:39;2.05;;;1.45;;
12145;SDS011;6136;47.032;15.398;2023-03-31T13:49:35;1.85;;;1.40;;
12145;SDS011;6136;47.032;15.398;2023-03-31T13:52:15;1.70;;;1.20;;
12145;SDS011;6136;47.032;15.398;2023-03-31T13:57:59;1.70;;;1.60;;
12145;SDS011;6136;47.032;15.398;2023-03-31T14:00:55;1.65;;;1.35;;
12145;SDS011;6136;47.032;15.398;2023-03-31T14:03:46;1.42;;;1.33;;
12145;SDS011;6136;47.032;15.398;2023-03-31T14:06:29;1.45;;;1.35;;
12145;SDS011;6136;47.032;15.398;2023-03-31T14:09:03;1.40;;;1.30;;
12145;SDS011;6136;47.032;15.398;2023-03-31T14:11:35;1.40;;;1.30;;
12145;SDS011;6136;47.032;15.398;2023-03-31T14:14:05;2.47;;;1.38;;
12145;SDS011;6136;47.032;15.398;2023-03-31T14:16:39;1.70;;;1.60;;
12145;SDS011;6136;47.032;15.398;2023-03-31T14:22:08;1.43;;;1.30;;
12145;SDS011;6136;47.032;15.398;2023-03-31T14:24:46;1.95;;;1.52;;
12145;SDS011;6136;47.032;15.398;2023-03-31T14:27:28;1.73;;;1.42;;
12145;SDS011;6136;47.032;15.398;2023-03-31T14:30:11;2.10;;;1.50;;
12145;SDS011;6136;47.032;15.398;2023-03-31T14:32:47;1.43;;;1.30;;
12145;SDS011;6136;47.032;15.398;2023-03-31T14:35:30;2.63;;;1.45;;
12145;SDS011;6136;47.032;15.398;2023-03-31T14:38:04;1.60;;;1.50;;
12145;SDS011;6136;47.032;15.398;2023-03-31T14:40:42;3.53;;;1.73;;
12145;SDS011;6136;47.032;15.398;2023-03-31T14:43:18;3.33;;;1.80;;
12145;SDS011;6136;47.032;15.398;2023-03-31T14:45:51;1.70;;;1.60;;
12145;SDS011;6136;47.032;15.398;2023-03-31T14:48:25;1.95;;;1.50;;
12145;SDS011;6136;47.032;15.398;2023-03-31T14:50:56;2.60;;;1.50;;
12145;SDS011;6136;47.032;15.398;2023-03-31T14:53:26;1.80;;;1.60;;
12145;SDS011;6136;47.032;15.398;2023-03-31T14:55:57;1.83;;;1.73;;
12145;SDS011;6136;47.032;15.398;2023-03-31T14:58:31;2.17;;;1.67;;
12145;SDS011;6136;47.032;15.398;2023-03-31T15:01:04;2.22;;;1.73;;
12145;SDS011;6136;47.032;15.398;2023-03-31T15:03:35;2.20;;;2.00;;
12145;SDS011;6136;47.032;15.398;2023-03-31T15:06:07;1.67;;;1.40;;
12145;SDS011;6136;47.032;15.398;2023-03-31T15:08:36;1.77;;;1.67;;
12145;SDS011;6136;47.032;15.398;2023-03-31T15:11:11;3.17;;;1.80;;
12145;SDS011;6136;47.032;15.398;2023-03-31T15:13:47;2.95;;;2.65;;
12145;SDS011;6136;47.032;15.398;2023-03-31T15:16:32;2.42;;;1.80;;
12145;SDS011;6136;47.032;15.398;2023-03-31T15:19:12;3.30;;;1.93;;
12145;SDS011;6136;47.032;15.398;2023-03-31T15:21:42;1.67;;;1.50;;
12145;SDS011;6136;47.032;15.398;2023-03-31T15:24:12;2.33;;;1.90;;
12145;SDS011;6136;47.032;15.398;2023-03-31T15:26:42;1.73;;;1.50;;
12145;SDS011;6136;47.032;15.398;2023-03-31T15:29:16;1.70;;;1.60;;
12145;SDS011;6136;47.032;15.398;2023-03-31T15:31:49;3.17;;;1.53;;
12145;SDS011;6136;47.032;15.398;2023-03-31T15:34:20;1.57;;;1.47;;
12145;SDS011;6136;47.032;15.398;2023-03-31T15:36:53;1.90;;;1.80;;
12145;SDS011;6136;47.032;15.398;2023-03-31T15:39:23;1.70;;;1.60;;
12145;SDS011;6136;47.032;15.398;2023-03-31T15:41:53;2.13;;;1.60;;
12145;SDS011;6136;47.032;15.398;2023-03-31T15:44:34;2.13;;;1.93;;
12145;SDS011;6136;47.032;15.398;2023-03-31T15:47:06;1.73;;;1.63;;
12145;SDS011;6136;47.032;15.398;2023-03-31T15:49:45;3.80;;;1.90;;
12145;SDS011;6136;47.032;15.398;2023-03-31T15:52:20;4.00;;;1.60;;
12145;SDS011;6136;47.032;15.398;2023-03-31T15:54:52;1.67;;;1.57;;
12145;SDS011;6136;47.032;15.398;2023-03-31T15:57:20;1.50;;;1.37;;
12145;SDS011;6136;47.032;15.398;2023-03-31T16:00:01;1.53;;;1.43;;
12145;SDS011;6136;47.032;15.398;2023-03-31T16:02:41;1.53;;;1.43;;